Ana Sayfa
METAR-TAF:

METAR-TAF

Havaalanları :

Greenville, Maine, Amerika Birleşik Devletleri

Enlem: 45-28N, Boylam: 069-35W, yükseklik: 427 m

Güncel hava durumu gözlemi

Rapor saat 11:56 UTC de 1 saat ve 0 dakika önce yapıldı.
Rüzgar değişken yönden 6 kt
Sıcaklık 13°C
Nem 77%
Basınç 1013 hPa

METAR: KGNR 171156Z AUTO VRB06KT 13/09 A2991 RMK AO1 SLP129 T01280089 10128 20100 53010

Saat: 08:56 (12:56 UTC)


TAF: eksik

4.000'den fazla havaalanı için hava durumu gözlemleri ve tahminleri (METAR ve TAF raporları).

Kullanılabilir istasyonlar harita üzerinde sarı ve kırmızı noktalarla gösterilir.

İstasyonun adını görmek için fareyi noktanın üzerinde gezdirin.

Sonrasında hava gözlem ve tahminlerini görmek için tıklayın.

Haritayı değiştirmek için: yaklaştırmak için siyah artı işaretli yeşil düğmeye ve uzaklaştırmak için de eksi işaretli düğmeye hızla tıklayın; bitişik haritalar için yeşil okları kullanın.


METAR-TAF: